createdAt,value
2022-11-25T00:00:57.874Z,2.10
2022-11-25T00:01:57.909Z,1.80
2022-11-25T00:02:57.932Z,1.60
2022-11-25T00:03:57.840Z,2.00
2022-11-25T00:04:57.817Z,2.00
2022-11-25T00:05:57.787Z,1.90
2022-11-25T00:06:57.797Z,1.80
2022-11-25T00:07:57.801Z,1.90
2022-11-25T00:08:58.086Z,2.10
2022-11-25T00:09:57.745Z,2.30
2022-11-25T00:11:02.476Z,2.00
2022-11-25T00:11:57.716Z,1.90
2022-11-25T00:12:57.738Z,2.00
2022-11-25T00:13:57.696Z,2.00
2022-11-25T00:14:57.737Z,1.80
2022-11-25T00:15:57.677Z,1.60
2022-11-25T00:16:57.731Z,2.10
2022-11-25T00:17:57.689Z,1.60
2022-11-25T00:18:57.668Z,2.10
2022-11-25T00:19:57.639Z,2.10
2022-11-25T00:21:00.038Z,1.90
2022-11-25T00:21:57.690Z,1.90
2022-11-25T00:22:57.621Z,1.80
2022-11-25T00:23:57.609Z,1.80
2022-11-25T00:24:57.627Z,2.10
2022-11-25T00:25:57.587Z,2.10
2022-11-25T00:26:57.611Z,2.10
2022-11-25T00:27:57.607Z,1.80
2022-11-25T00:28:57.554Z,2.00
2022-11-25T00:29:57.525Z,2.20
2022-11-25T00:30:57.576Z,1.90
2022-11-25T00:31:57.599Z,2.00
2022-11-25T00:32:58.019Z,1.60
2022-11-25T00:33:57.490Z,2.10
2022-11-25T00:34:57.516Z,1.80
2022-11-25T00:35:58.428Z,2.40
2022-11-25T00:37:54.658Z,1.70
2022-11-25T00:38:54.222Z,1.70
2022-11-25T00:39:54.180Z,2.30
2022-11-25T00:40:54.189Z,2.40
2022-11-25T00:41:54.151Z,2.00
2022-11-25T00:42:54.150Z,1.90
2022-11-25T00:43:54.142Z,1.80
2022-11-25T00:44:54.162Z,1.90
2022-11-25T00:45:54.173Z,2.10
2022-11-25T00:46:54.133Z,1.80
2022-11-25T00:47:54.101Z,1.60
2022-11-25T00:48:54.101Z,1.90
2022-11-25T00:49:54.127Z,2.00
2022-11-25T00:50:54.093Z,1.70
2022-11-25T00:51:54.049Z,1.80
2022-11-25T00:52:54.057Z,1.70
2022-11-25T00:53:58.712Z,2.00
2022-11-25T00:54:55.071Z,1.80
2022-11-25T00:55:54.011Z,1.60
2022-11-25T00:56:54.024Z,2.00
2022-11-25T00:57:53.990Z,1.90
2022-11-25T00:58:54.030Z,1.70
2022-11-25T00:59:53.992Z,2.00
2022-11-25T01:00:54.090Z,1.90
2022-11-25T01:01:54.031Z,1.90
2022-11-25T01:02:53.962Z,1.90
2022-11-25T01:03:53.933Z,1.60
2022-11-25T01:04:53.964Z,1.90
2022-11-25T01:05:53.932Z,1.70
2022-11-25T01:06:53.932Z,1.90
2022-11-25T01:07:53.951Z,1.90
2022-11-25T01:08:53.898Z,1.80
2022-11-25T01:09:53.872Z,2.00
2022-11-25T01:10:53.891Z,2.00
2022-11-25T01:11:53.862Z,1.50
2022-11-25T01:12:53.862Z,2.10
2022-11-25T01:13:57.945Z,1.90
2022-11-25T01:14:54.842Z,1.90
2022-11-25T01:15:53.852Z,1.90
2022-11-25T01:16:53.949Z,1.70
2022-11-25T01:17:53.790Z,2.30
2022-11-25T01:18:53.792Z,2.00
2022-11-25T01:19:53.783Z,1.90
2022-11-25T01:20:53.771Z,2.00
2022-11-25T01:21:53.750Z,1.90
2022-11-25T01:22:53.762Z,2.10
2022-11-25T01:23:53.751Z,1.80
2022-11-25T01:24:53.763Z,2.10
2022-11-25T01:25:53.745Z,2.20
2022-11-25T01:26:53.713Z,1.90
2022-11-25T01:27:53.712Z,2.20
2022-11-25T01:28:53.702Z,1.60
2022-11-25T01:29:53.694Z,1.80
2022-11-25T01:30:53.681Z,1.80
2022-11-25T01:31:53.735Z,2.10
2022-11-25T01:32:53.662Z,2.00
2022-11-25T01:33:53.621Z,1.90
2022-11-25T01:34:53.632Z,1.90
2022-11-25T01:35:53.781Z,1.90
2022-11-25T01:36:53.657Z,2.20
2022-11-25T01:37:53.590Z,2.10
2022-11-25T01:38:53.591Z,2.10
2022-11-25T01:39:53.593Z,2.40
2022-11-25T01:40:53.573Z,2.20
2022-11-25T01:41:53.553Z,1.80
2022-11-25T01:42:53.562Z,2.10
2022-11-25T01:43:53.523Z,1.70
2022-11-25T01:44:53.533Z,2.00
2022-11-25T01:45:53.609Z,1.60
2022-11-25T01:46:53.514Z,2.30
2022-11-25T01:47:53.485Z,1.70
2022-11-25T01:48:53.520Z,1.90
2022-11-25T01:49:53.482Z,1.80
2022-11-25T01:50:53.481Z,1.80
2022-11-25T01:51:53.441Z,1.90
2022-11-25T01:52:53.452Z,2.10
2022-11-25T01:53:53.420Z,2.20
2022-11-25T01:54:53.440Z,1.90
2022-11-25T01:55:53.431Z,1.90
2022-11-25T01:56:53.413Z,2.00
2022-11-25T01:57:53.394Z,2.20
2022-11-25T01:58:53.402Z,2.00
2022-11-25T01:59:53.374Z,1.90
2022-11-25T02:00:53.591Z,2.00
2022-11-25T02:01:53.365Z,1.70
2022-11-25T02:02:53.368Z,1.80
2022-11-25T02:03:53.330Z,1.60
2022-11-25T02:04:53.332Z,1.70
2022-11-25T02:05:53.310Z,1.90
2022-11-25T02:06:53.332Z,1.60
2022-11-25T02:07:53.350Z,1.50
2022-11-25T02:08:53.331Z,1.60
2022-11-25T02:09:53.262Z,2.60
2022-11-25T02:10:53.282Z,1.80
2022-11-25T02:11:53.244Z,1.70
2022-11-25T02:12:53.251Z,1.80
2022-11-25T02:13:53.223Z,1.60
2022-11-25T02:14:53.224Z,1.70
2022-11-25T02:15:53.235Z,1.70
2022-11-25T02:16:53.291Z,1.80
2022-11-25T02:17:53.202Z,1.80
2022-11-25T02:18:53.186Z,2.10
2022-11-25T02:19:53.182Z,1.70
2022-11-25T02:20:53.172Z,1.80
2022-11-25T02:21:53.160Z,1.90
2022-11-25T02:22:53.152Z,1.70
2022-11-25T02:23:53.136Z,1.60
2022-11-25T02:24:53.104Z,1.60
2022-11-25T02:25:53.161Z,1.90
2022-11-25T02:26:53.102Z,1.60
2022-11-25T02:27:53.124Z,2.00
2022-11-25T02:28:53.074Z,1.90
2022-11-25T02:29:53.083Z,2.20
2022-11-25T02:30:53.072Z,1.90
2022-11-25T02:31:53.123Z,2.00
2022-11-25T02:32:53.024Z,1.70
2022-11-25T02:33:53.059Z,1.80
2022-11-25T02:34:53.016Z,1.60
2022-11-25T02:35:53.042Z,2.00
2022-11-25T02:36:52.982Z,1.90
2022-11-25T02:37:52.993Z,1.70
2022-11-25T02:38:53.018Z,1.60
2022-11-25T02:39:52.981Z,2.10
2022-11-25T02:40:52.972Z,2.00
2022-11-25T02:41:52.956Z,1.90
2022-11-25T02:42:52.924Z,1.80
2022-11-25T02:43:52.944Z,1.70
2022-11-25T02:44:52.929Z,1.80
2022-11-25T02:45:53.010Z,1.70
2022-11-25T02:46:52.915Z,1.70
2022-11-25T02:47:52.935Z,1.70
2022-11-25T02:49:08.361Z,1.80
2022-11-25T02:49:53.874Z,2.00
2022-11-25T02:50:52.894Z,1.70
2022-11-25T02:51:52.853Z,1.90
2022-11-25T02:52:52.843Z,2.00
2022-11-25T02:53:52.863Z,2.10
2022-11-25T02:54:52.803Z,2.00
2022-11-25T02:55:52.825Z,1.90
2022-11-25T02:56:52.834Z,1.90
2022-11-25T02:57:52.783Z,1.80
2022-11-25T02:58:52.774Z,1.90
2022-11-25T02:59:52.775Z,2.20
2022-11-25T03:00:52.807Z,1.90
2022-11-25T03:01:52.807Z,2.10
2022-11-25T03:02:52.766Z,1.70
2022-11-25T03:03:52.735Z,2.30
2022-11-25T03:04:52.706Z,2.00
2022-11-25T03:05:52.731Z,1.70
2022-11-25T03:06:52.694Z,2.40
2022-11-25T03:07:52.786Z,2.10
2022-11-25T03:08:52.672Z,2.30
2022-11-25T03:09:52.683Z,2.00
2022-11-25T03:10:52.653Z,1.70
2022-11-25T03:11:52.651Z,1.70
2022-11-25T03:12:52.643Z,5.30
2022-11-25T03:13:52.631Z,1.60
2022-11-25T03:14:53.584Z,1.90
2022-11-25T03:15:52.607Z,1.80
2022-11-25T03:16:52.640Z,2.00
2022-11-25T03:17:52.595Z,2.10
2022-11-25T03:18:52.586Z,2.00
2022-11-25T03:19:52.564Z,2.30
2022-11-25T03:20:53.213Z,2.20
2022-11-25T03:21:53.363Z,1.80
2022-11-25T03:22:52.625Z,2.00
2022-11-25T03:23:52.573Z,1.60
2022-11-25T03:24:52.506Z,1.80
2022-11-25T03:25:52.516Z,1.80
2022-11-25T03:26:52.495Z,2.10
2022-11-25T03:27:52.527Z,2.00
2022-11-25T03:28:52.475Z,2.00
2022-11-25T03:29:52.476Z,2.00
2022-11-25T03:30:52.456Z,1.70
2022-11-25T03:31:52.525Z,1.80
2022-11-25T03:32:52.484Z,1.50
2022-11-25T03:33:52.423Z,1.90
2022-11-25T03:34:52.416Z,1.50
2022-11-25T03:35:52.426Z,1.80
2022-11-25T03:36:52.441Z,1.90
2022-11-25T03:37:52.387Z,1.60
2022-11-25T03:38:52.374Z,2.00
2022-11-25T03:39:52.383Z,1.90
2022-11-25T03:40:52.357Z,1.70
2022-11-25T03:41:52.374Z,1.90
2022-11-25T03:42:52.326Z,1.70
2022-11-25T03:43:52.346Z,2.00
2022-11-25T03:44:52.307Z,1.70
2022-11-25T03:45:52.330Z,2.20
2022-11-25T03:46:52.296Z,1.70
2022-11-25T03:47:52.293Z,2.10
2022-11-25T03:48:52.269Z,1.40
2022-11-25T03:49:52.266Z,1.90
2022-11-25T03:50:52.266Z,2.10
2022-11-25T03:51:52.313Z,1.80
2022-11-25T03:52:52.228Z,2.00
2022-11-25T03:53:52.906Z,1.80
2022-11-25T03:54:52.227Z,2.10
2022-11-25T03:55:52.216Z,2.10
2022-11-25T03:56:52.217Z,2.00
2022-11-25T03:57:52.219Z,1.90
2022-11-25T03:58:52.166Z,2.10
2022-11-25T03:59:52.184Z,2.10
2022-11-25T04:00:52.185Z,1.70
2022-11-25T04:01:52.233Z,1.70
2022-11-25T04:02:52.197Z,1.70
2022-11-25T04:03:52.145Z,1.70
2022-11-25T04:04:52.113Z,2.10
2022-11-25T04:05:52.095Z,2.30
2022-11-25T04:06:52.086Z,2.20
2022-11-25T04:07:57.564Z,2.10
2022-11-25T04:08:53.085Z,2.20
2022-11-25T04:09:52.076Z,2.10
2022-11-25T04:10:52.035Z,1.90
2022-11-25T04:11:52.088Z,1.50
2022-11-25T04:12:52.027Z,2.00
2022-11-25T04:13:52.026Z,2.10
2022-11-25T04:14:52.028Z,2.00
2022-11-25T04:15:52.043Z,1.60
2022-11-25T04:16:52.072Z,2.00
2022-11-25T04:17:52.017Z,1.80
2022-11-25T04:18:51.979Z,2.00
2022-11-25T04:19:51.987Z,1.70
2022-11-25T04:20:52.625Z,1.90
2022-11-25T04:21:52.568Z,1.70
2022-11-25T04:22:51.956Z,1.80
2022-11-25T04:23:51.937Z,2.00
2022-11-25T04:24:51.917Z,1.70
2022-11-25T04:25:51.943Z,2.00
2022-11-25T04:26:52.012Z,1.90
2022-11-25T04:27:51.887Z,1.70
2022-11-25T04:28:53.101Z,2.10
2022-11-25T04:29:51.865Z,1.90
2022-11-25T04:30:51.942Z,2.10
2022-11-25T04:31:51.870Z,1.80
2022-11-25T04:32:51.816Z,2.10
2022-11-25T04:33:52.837Z,1.80
2022-11-25T04:34:51.795Z,2.10
2022-11-25T04:35:51.806Z,1.70
2022-11-25T04:36:51.793Z,1.90
2022-11-25T04:37:51.815Z,1.60
2022-11-25T04:38:51.760Z,2.00
2022-11-25T04:39:51.759Z,4.90
2022-11-25T04:40:51.756Z,1.90
2022-11-25T04:41:51.748Z,1.90
2022-11-25T04:42:54.933Z,2.00
2022-11-25T04:43:52.780Z,2.20
2022-11-25T04:45:14.013Z,2.00
2022-11-25T04:46:13.113Z,1.90
2022-11-25T04:46:52.713Z,2.00
2022-11-25T04:47:51.704Z,2.00
2022-11-25T04:48:51.660Z,1.90
2022-11-25T04:49:51.724Z,1.70
2022-11-25T04:50:51.639Z,1.90
2022-11-25T04:51:51.659Z,1.80
2022-11-25T04:52:51.640Z,1.70
2022-11-25T04:53:51.637Z,1.70
2022-11-25T04:54:51.598Z,1.80
2022-11-25T04:55:51.611Z,2.00
2022-11-25T04:56:51.578Z,1.90
2022-11-25T04:57:51.599Z,1.90
2022-11-25T04:58:52.049Z,1.20
2022-11-25T04:59:51.563Z,1.70
2022-11-25T05:00:51.583Z,1.60
2022-11-25T05:01:51.593Z,1.70
2022-11-25T05:02:51.570Z,1.70
2022-11-25T05:03:57.176Z,2.10
2022-11-25T05:04:52.523Z,2.20
2022-11-25T05:05:51.505Z,1.70
2022-11-25T05:06:51.479Z,1.60
2022-11-25T05:07:51.556Z,1.60
2022-11-25T05:08:52.419Z,1.70
2022-11-25T05:09:51.477Z,1.40
2022-11-25T05:10:51.438Z,2.00
2022-11-25T05:11:51.449Z,1.60
2022-11-25T05:12:51.499Z,1.90
2022-11-25T05:13:51.439Z,1.70
2022-11-25T05:14:51.401Z,1.60
2022-11-25T05:15:51.406Z,2.00
2022-11-25T05:16:51.442Z,1.80
2022-11-25T05:17:51.407Z,1.70
2022-11-25T05:18:51.347Z,1.50
2022-11-25T05:19:51.366Z,1.60
2022-11-25T05:20:51.336Z,1.70
2022-11-25T05:21:51.329Z,1.90
2022-11-25T05:22:51.317Z,1.70
2022-11-25T05:23:55.703Z,1.70
2022-11-25T05:24:51.310Z,1.40
2022-11-25T05:25:51.309Z,1.70
2022-11-25T05:26:51.291Z,1.70
2022-11-25T05:27:51.447Z,1.80
2022-11-25T05:28:51.257Z,1.80
2022-11-25T05:29:55.724Z,1.40
2022-11-25T05:30:52.308Z,1.50
2022-11-25T05:31:51.239Z,1.60
2022-11-25T05:32:51.410Z,1.80
2022-11-25T05:33:51.237Z,1.80
2022-11-25T05:34:51.247Z,1.40
2022-11-25T05:35:51.209Z,1.60
2022-11-25T05:36:51.179Z,1.80
2022-11-25T05:38:48.095Z,1.40
2022-11-25T05:39:48.084Z,1.40
2022-11-25T05:40:48.054Z,1.80
2022-11-25T05:41:48.064Z,1.20
2022-11-25T05:42:48.064Z,1.70
2022-11-25T05:43:48.150Z,1.50
2022-11-25T05:44:48.045Z,1.50
2022-11-25T05:45:48.098Z,1.60
2022-11-25T05:46:47.997Z,1.60
2022-11-25T05:47:48.027Z,1.80
2022-11-25T05:48:48.007Z,1.70
2022-11-25T05:49:47.997Z,1.60
2022-11-25T05:50:47.958Z,1.50
2022-11-25T05:51:47.976Z,1.90
2022-11-25T05:52:47.946Z,1.40
2022-11-25T05:53:47.934Z,1.70
2022-11-25T05:54:47.936Z,1.70
2022-11-25T05:55:47.916Z,1.50
2022-11-25T05:56:47.886Z,1.50
2022-11-25T05:57:47.911Z,1.40
2022-11-25T05:58:47.885Z,1.40
2022-11-25T05:59:47.893Z,1.60
2022-11-25T06:00:47.874Z,1.50
2022-11-25T06:01:47.878Z,1.80
2022-11-25T06:02:47.976Z,1.70
2022-11-25T06:03:47.899Z,1.60
2022-11-25T06:04:47.823Z,1.70
2022-11-25T06:05:47.840Z,1.20
2022-11-25T06:06:47.809Z,1.50
2022-11-25T06:07:47.865Z,1.50
2022-11-25T06:08:47.789Z,1.60
2022-11-25T06:09:47.800Z,1.50
2022-11-25T06:10:47.886Z,1.60
2022-11-25T06:11:47.765Z,1.70
2022-11-25T06:12:47.745Z,1.80
2022-11-25T06:13:47.736Z,1.20
2022-11-25T06:14:47.717Z,1.70
2022-11-25T06:15:47.754Z,1.40
2022-11-25T06:16:47.685Z,1.50
2022-11-25T06:17:47.698Z,1.30
2022-11-25T06:18:47.859Z,1.10
2022-11-25T06:19:47.688Z,1.70
2022-11-25T06:20:47.699Z,1.50
2022-11-25T06:21:47.666Z,1.70
2022-11-25T06:22:47.637Z,1.50
2022-11-25T06:23:47.649Z,1.40
2022-11-25T06:24:54.398Z,1.70
2022-11-25T06:25:48.634Z,1.60
2022-11-25T06:26:47.599Z,1.70
2022-11-25T06:28:11.803Z,1.10
2022-11-25T06:28:48.583Z,1.40
2022-11-25T06:29:47.565Z,1.70
2022-11-25T06:30:47.630Z,1.60
2022-11-25T06:31:47.556Z,1.70
2022-11-25T06:32:47.569Z,1.40
2022-11-25T06:33:47.538Z,1.30
2022-11-25T06:34:47.538Z,1.60
2022-11-25T06:35:47.518Z,1.40
2022-11-25T06:36:47.517Z,1.30
2022-11-25T06:37:47.477Z,1.20
2022-11-25T06:38:47.456Z,1.40
2022-11-25T06:39:47.466Z,1.40
2022-11-25T06:40:47.457Z,1.70
2022-11-25T06:41:47.457Z,1.40
2022-11-25T06:42:47.418Z,1.50
2022-11-25T06:43:47.468Z,1.20
2022-11-25T06:44:47.406Z,1.90
2022-11-25T06:45:47.399Z,1.30
2022-11-25T06:46:47.451Z,1.20
2022-11-25T06:47:47.389Z,1.50
2022-11-25T06:48:47.358Z,1.40
2022-11-25T06:49:47.386Z,1.60
2022-11-25T06:50:47.336Z,1.60
2022-11-25T06:51:47.365Z,1.20
2022-11-25T06:52:47.317Z,1.50
2022-11-25T06:53:47.316Z,1.40
2022-11-25T06:54:47.251Z,1.30
2022-11-25T06:55:47.316Z,1.60
2022-11-25T06:56:47.268Z,1.40
2022-11-25T06:57:47.330Z,1.20
2022-11-25T06:58:47.268Z,1.20
2022-11-25T06:59:47.268Z,1.70
2022-11-25T07:00:47.239Z,1.20
2022-11-25T07:01:47.283Z,1.60
2022-11-25T07:02:48.922Z,1.20
2022-11-25T07:03:47.282Z,1.40
2022-11-25T07:04:47.209Z,1.50
2022-11-25T07:05:47.219Z,1.50
2022-11-25T07:06:47.217Z,1.10
2022-11-25T07:07:47.218Z,1.60
2022-11-25T07:08:47.167Z,1.60
2022-11-25T07:09:47.157Z,1.30
2022-11-25T07:10:47.119Z,1.50
2022-11-25T07:11:47.094Z,1.40
2022-11-25T07:12:47.048Z,1.30
2022-11-25T07:13:47.088Z,1.20
2022-11-25T07:14:47.070Z,1.50
2022-11-25T07:15:47.064Z,1.40
2022-11-25T07:16:47.019Z,1.70
2022-11-25T07:17:47.029Z,1.30
2022-11-25T07:18:47.003Z,1.20
2022-11-25T07:19:47.085Z,1.30
2022-11-25T07:20:47.000Z,1.50
2022-11-25T07:21:46.991Z,1.60
2022-11-25T07:22:46.958Z,1.30
2022-11-25T07:23:46.958Z,1.30
2022-11-25T07:24:46.974Z,1.20
2022-11-25T07:25:46.959Z,1.50
2022-11-25T07:26:46.956Z,1.30
2022-11-25T07:27:46.918Z,1.20
2022-11-25T07:28:46.908Z,1.20
2022-11-25T07:31:22.645Z,1.50
2022-11-25T07:31:47.897Z,1.00
2022-11-25T07:32:46.873Z,1.20
2022-11-25T07:33:46.894Z,1.60
2022-11-25T07:34:46.832Z,1.10
2022-11-25T07:35:46.852Z,1.40
2022-11-25T07:36:46.830Z,1.10
2022-11-25T07:37:46.857Z,1.30
2022-11-25T07:38:47.091Z,1.20
2022-11-25T07:39:46.798Z,1.20
2022-11-25T07:40:46.769Z,1.30
2022-11-25T07:41:46.771Z,1.00
2022-11-25T07:42:46.791Z,1.30
2022-11-25T07:43:46.772Z,1.50
2022-11-25T07:44:46.761Z,1.20
2022-11-25T07:45:46.789Z,1.20
2022-11-25T07:46:46.749Z,1.10
2022-11-25T07:47:46.699Z,0.90
2022-11-25T07:48:46.750Z,1.10
2022-11-25T07:49:46.679Z,1.30
2022-11-25T07:50:46.700Z,1.40
2022-11-25T07:51:46.659Z,1.10
2022-11-25T07:52:46.649Z,1.40
2022-11-25T07:53:46.642Z,1.40
2022-11-25T07:54:46.703Z,1.10
2022-11-25T07:55:46.629Z,1.30
2022-11-25T07:56:46.651Z,1.30
2022-11-25T07:57:46.603Z,1.10
2022-11-25T07:58:46.610Z,1.20
2022-11-25T07:59:46.584Z,1.20
2022-11-25T08:00:46.601Z,1.20
2022-11-25T08:01:46.646Z,1.20
2022-11-25T08:02:46.603Z,1.40
2022-11-25T08:03:46.530Z,1.20
2022-11-25T08:04:46.539Z,1.20
2022-11-25T08:05:46.537Z,1.30
2022-11-25T08:06:46.530Z,1.50
2022-11-25T08:07:46.573Z,1.30
2022-11-25T08:08:46.510Z,0.90
2022-11-25T08:09:46.473Z,1.00
2022-11-25T08:10:46.472Z,1.10
2022-11-25T08:11:46.482Z,1.00
2022-11-25T08:12:46.472Z,1.30
2022-11-25T08:13:46.450Z,1.20
2022-11-25T08:14:46.472Z,1.00
2022-11-25T08:15:46.524Z,1.00
2022-11-25T08:16:46.441Z,1.20
2022-11-25T08:17:46.391Z,0.90
2022-11-25T08:18:46.425Z,1.10
2022-11-25T08:19:46.420Z,1.00
2022-11-25T08:20:46.416Z,1.00
2022-11-25T08:21:46.350Z,1.00
2022-11-25T08:22:46.351Z,1.00
2022-11-25T08:23:46.333Z,0.90
2022-11-25T08:24:46.333Z,0.90
2022-11-25T08:25:50.465Z,1.00
2022-11-25T08:26:46.352Z,1.20
2022-11-25T08:27:46.319Z,1.30
2022-11-25T08:28:46.323Z,1.30
2022-11-25T08:29:46.279Z,1.00
2022-11-25T08:30:46.281Z,0.90
2022-11-25T08:31:46.379Z,1.20
2022-11-25T08:32:46.284Z,1.10
2022-11-25T08:33:46.230Z,1.00
2022-11-25T08:34:46.230Z,1.20
2022-11-25T08:35:46.203Z,1.00
2022-11-25T08:36:48.483Z,1.00
2022-11-25T08:37:46.216Z,1.10
2022-11-25T08:38:46.221Z,1.00
2022-11-25T08:39:54.039Z,1.10
2022-11-25T08:40:47.170Z,1.00
2022-11-25T08:41:46.171Z,1.00
2022-11-25T08:42:46.212Z,1.00
2022-11-25T08:43:46.132Z,1.10
2022-11-25T08:44:46.152Z,1.00
2022-11-25T08:45:46.132Z,1.30
2022-11-25T08:46:46.139Z,0.90
2022-11-25T08:47:46.080Z,1.00
2022-11-25T08:48:46.590Z,1.20
2022-11-25T08:49:46.307Z,0.90
2022-11-25T08:50:46.092Z,1.20
2022-11-25T08:51:46.043Z,1.10
2022-11-25T08:52:46.074Z,0.90
2022-11-25T08:53:46.022Z,1.20
2022-11-25T08:54:46.048Z,0.60
2022-11-25T08:55:46.010Z,0.70
2022-11-25T08:56:46.011Z,1.10
2022-11-25T08:57:46.001Z,1.10
2022-11-25T08:58:45.984Z,1.10
2022-11-25T08:59:45.959Z,1.20
2022-11-25T09:00:46.004Z,1.10
2022-11-25T09:01:46.002Z,1.20
2022-11-25T09:02:46.078Z,0.80
2022-11-25T09:03:45.931Z,1.30
2022-11-25T09:04:45.962Z,1.30
2022-11-25T09:05:45.906Z,1.10
2022-11-25T09:06:45.912Z,0.90
2022-11-25T09:07:45.976Z,0.90
2022-11-25T09:08:45.918Z,1.00
2022-11-25T09:09:45.863Z,0.70
2022-11-25T09:10:45.960Z,0.90
2022-11-25T09:11:45.942Z,1.10
2022-11-25T09:12:45.881Z,1.20
2022-11-25T09:13:45.907Z,1.10
2022-11-25T09:14:45.871Z,1.00
2022-11-25T09:15:45.831Z,1.20
2022-11-25T09:16:45.857Z,0.90
2022-11-25T09:17:45.790Z,0.90
2022-11-25T09:18:45.781Z,1.30
2022-11-25T09:19:45.781Z,0.90
2022-11-25T09:20:45.813Z,1.00
2022-11-25T09:21:45.797Z,1.40
2022-11-25T09:22:45.755Z,1.10
2022-11-25T09:23:45.823Z,1.10
2022-11-25T09:24:45.703Z,1.00
2022-11-25T09:25:45.753Z,1.20
2022-11-25T09:26:45.739Z,0.90
2022-11-25T09:27:45.718Z,1.00
2022-11-25T09:28:45.718Z,1.00
2022-11-25T09:29:45.671Z,0.90
2022-11-25T09:30:45.640Z,1.20
2022-11-25T09:31:48.867Z,1.00
2022-11-25T09:32:46.642Z,1.00
2022-11-25T09:33:45.640Z,1.20
2022-11-25T09:34:45.602Z,1.10
2022-11-25T09:35:45.632Z,0.90
2022-11-25T09:36:45.584Z,1.10
2022-11-25T09:37:45.658Z,0.70
2022-11-25T09:38:45.604Z,0.70
2022-11-25T09:39:45.563Z,1.00
2022-11-25T09:40:45.557Z,1.00
2022-11-25T09:41:45.584Z,1.20
2022-11-25T09:42:45.530Z,0.90
2022-11-25T09:43:45.554Z,0.80
2022-11-25T09:44:45.520Z,0.90
2022-11-25T09:45:45.500Z,0.80
2022-11-25T09:46:45.594Z,1.00
2022-11-25T09:47:48.974Z,1.00
2022-11-25T09:48:46.504Z,1.00
2022-11-25T09:49:45.465Z,0.80
2022-11-25T09:50:45.464Z,0.60
2022-11-25T09:51:45.454Z,0.90
2022-11-25T09:52:45.444Z,0.80
2022-11-25T09:53:45.403Z,0.80
2022-11-25T09:54:45.442Z,0.90
2022-11-25T09:55:45.392Z,0.80
2022-11-25T09:56:45.393Z,1.00
2022-11-25T09:57:45.383Z,0.80
2022-11-25T09:58:45.374Z,1.10
2022-11-25T09:59:45.344Z,1.00
2022-11-25T10:00:45.364Z,1.20
2022-11-25T10:01:45.418Z,1.00
2022-11-25T10:02:45.465Z,1.10
2022-11-25T10:03:45.374Z,0.90
2022-11-25T10:04:45.325Z,1.20
2022-11-25T10:05:45.304Z,1.00
2022-11-25T10:06:46.603Z,0.90
2022-11-25T10:07:45.264Z,0.80
2022-11-25T10:08:45.284Z,1.10
2022-11-25T10:09:45.252Z,1.30
2022-11-25T10:10:45.272Z,1.00
2022-11-25T10:11:45.233Z,0.90
2022-11-25T10:12:45.237Z,1.00
2022-11-25T10:13:45.193Z,1.30
2022-11-25T10:14:45.221Z,1.40
2022-11-25T10:15:45.230Z,1.00
2022-11-25T10:16:51.156Z,1.10
2022-11-25T10:17:46.224Z,1.10
2022-11-25T10:18:45.184Z,1.10
2022-11-25T10:19:45.153Z,1.30
2022-11-25T10:20:45.156Z,1.00
2022-11-25T10:21:45.134Z,1.40
2022-11-25T10:22:45.134Z,1.00
2022-11-25T10:23:45.125Z,1.20
2022-11-25T10:24:45.219Z,1.10
2022-11-25T10:25:45.102Z,1.00
2022-11-25T10:26:45.083Z,1.00
2022-11-25T10:27:45.072Z,1.00
2022-11-25T10:28:45.083Z,1.00
2022-11-25T10:29:45.044Z,1.10
2022-11-25T10:30:45.052Z,1.50
2022-11-25T10:31:45.100Z,1.20
2022-11-25T10:32:45.070Z,1.50
2022-11-25T10:33:45.025Z,1.10
2022-11-25T10:34:45.055Z,1.00
2022-11-25T10:35:44.975Z,1.20
2022-11-25T10:36:44.975Z,1.30
2022-11-25T10:37:44.985Z,1.20
2022-11-25T10:39:41.654Z,1.40
2022-11-25T10:40:41.661Z,1.50
2022-11-25T10:41:41.685Z,1.10
2022-11-25T10:42:41.603Z,1.30
2022-11-25T10:43:42.254Z,1.20
2022-11-25T10:44:41.607Z,1.20
2022-11-25T10:45:41.652Z,1.20
2022-11-25T10:47:11.622Z,1.20
2022-11-25T10:47:42.750Z,1.10
2022-11-25T10:48:44.323Z,0.90
2022-11-25T10:49:41.558Z,1.20
2022-11-25T10:50:41.537Z,1.20
2022-11-25T10:51:41.544Z,1.30
2022-11-25T10:52:41.523Z,1.30
2022-11-25T10:53:41.521Z,1.00
2022-11-25T10:54:41.796Z,1.00
2022-11-25T10:55:41.493Z,1.00
2022-11-25T10:56:41.477Z,1.30
2022-11-25T10:57:41.482Z,0.90
2022-11-25T10:58:41.637Z,1.10
2022-11-25T10:59:41.462Z,1.10
2022-11-25T11:00:41.445Z,0.80
2022-11-25T11:01:41.515Z,1.10
2022-11-25T11:02:41.503Z,1.00
2022-11-25T11:03:41.442Z,0.80
2022-11-25T11:04:41.426Z,1.30
2022-11-25T11:05:46.452Z,1.10
2022-11-25T11:06:42.393Z,1.00
2022-11-25T11:07:41.445Z,1.10
2022-11-25T11:08:41.394Z,0.70
2022-11-25T11:09:41.732Z,1.10
2022-11-25T11:10:41.353Z,1.40
2022-11-25T11:11:41.451Z,1.30
2022-11-25T11:12:41.302Z,1.20
2022-11-25T11:13:41.306Z,1.00
2022-11-25T11:14:41.295Z,1.10
2022-11-25T11:15:41.522Z,0.90
2022-11-25T11:16:41.307Z,1.30
2022-11-25T11:17:41.295Z,1.00
2022-11-25T11:18:41.276Z,1.00
2022-11-25T11:19:41.265Z,1.20
2022-11-25T11:20:41.794Z,1.40
2022-11-25T11:21:41.259Z,1.20
2022-11-25T11:22:41.208Z,1.40
2022-11-25T11:23:41.213Z,1.10
2022-11-25T11:24:41.290Z,1.00
2022-11-25T11:25:41.224Z,1.00
2022-11-25T11:26:41.173Z,1.20
2022-11-25T11:27:41.172Z,1.00
2022-11-25T11:28:41.165Z,1.40
2022-11-25T11:29:41.174Z,1.00
2022-11-25T11:30:41.696Z,1.10
2022-11-25T11:31:41.176Z,1.00
2022-11-25T11:32:41.124Z,1.00
2022-11-25T11:33:41.122Z,1.10
2022-11-25T11:34:41.130Z,0.90
2022-11-25T11:35:42.088Z,1.00
2022-11-25T11:36:41.145Z,1.20
2022-11-25T11:37:41.073Z,1.30
2022-11-25T11:38:41.054Z,0.90
2022-11-25T11:39:41.089Z,1.10
2022-11-25T11:40:41.094Z,1.00
2022-11-25T11:41:41.066Z,1.00
2022-11-25T11:42:41.023Z,1.00
2022-11-25T11:43:41.015Z,1.30
2022-11-25T11:44:40.996Z,1.00
2022-11-25T11:45:41.035Z,1.30
2022-11-25T11:46:41.048Z,1.40
2022-11-25T11:47:40.979Z,1.20
2022-11-25T11:48:40.944Z,1.30
2022-11-25T11:49:40.974Z,1.10
2022-11-25T11:50:41.105Z,1.10
2022-11-25T11:51:40.924Z,1.20
2022-11-25T11:52:40.963Z,1.00
2022-11-25T11:53:40.946Z,1.10
2022-11-25T11:54:40.885Z,1.10
2022-11-25T11:55:41.214Z,0.90
2022-11-25T11:56:40.915Z,1.00
2022-11-25T11:57:40.868Z,1.20
2022-11-25T11:58:40.874Z,1.70
2022-11-25T11:59:40.855Z,1.30
2022-11-25T12:00:40.863Z,1.10
2022-11-25T12:01:40.947Z,1.10
2022-11-25T12:02:40.947Z,1.20
2022-11-25T12:03:40.998Z,1.20
2022-11-25T12:04:40.841Z,1.70
2022-11-25T12:05:40.792Z,1.50
2022-11-25T12:06:41.238Z,1.10
2022-11-25T12:07:40.871Z,1.80
2022-11-25T12:08:40.784Z,1.80
2022-11-25T12:09:40.776Z,1.40
2022-11-25T12:10:41.422Z,1.50
2022-11-25T12:11:40.726Z,1.60
2022-11-25T12:12:40.794Z,3.00
2022-11-25T12:13:40.716Z,2.00
2022-11-25T12:14:40.694Z,1.70
2022-11-25T12:15:40.694Z,1.80
2022-11-25T12:16:40.805Z,1.60
2022-11-25T12:17:40.676Z,1.60
2022-11-25T12:18:41.167Z,1.70
2022-11-25T12:19:40.634Z,2.00
2022-11-25T12:20:40.647Z,1.50
2022-11-25T12:21:42.253Z,1.90
2022-11-25T12:22:40.644Z,2.00
2022-11-25T12:23:40.636Z,1.80
2022-11-25T12:24:40.592Z,1.90
2022-11-25T12:25:40.582Z,2.00
2022-11-25T12:26:40.607Z,1.80
2022-11-25T12:27:40.741Z,1.80
2022-11-25T12:28:40.797Z,2.00
2022-11-25T12:29:40.578Z,1.90
2022-11-25T12:30:40.528Z,1.70
2022-11-25T12:31:40.651Z,1.80
2022-11-25T12:32:40.559Z,1.40
2022-11-25T12:33:41.495Z,1.40
2022-11-25T12:34:40.511Z,1.80
2022-11-25T12:35:40.585Z,1.90
2022-11-25T12:36:40.465Z,1.90
2022-11-25T12:37:40.519Z,1.40
2022-11-25T12:38:40.479Z,1.60
2022-11-25T12:39:40.437Z,1.90
2022-11-25T12:40:40.455Z,1.50
2022-11-25T12:41:40.498Z,1.90
2022-11-25T12:42:40.515Z,1.30
2022-11-25T12:43:40.447Z,1.50
2022-11-25T12:44:40.426Z,1.50
2022-11-25T12:45:40.414Z,1.70
2022-11-25T12:46:40.384Z,1.50
2022-11-25T12:47:40.387Z,1.40
2022-11-25T12:48:40.376Z,1.70
2022-11-25T12:49:40.704Z,1.60
2022-11-25T12:50:40.345Z,1.50
2022-11-25T12:51:40.329Z,1.50
2022-11-25T12:52:40.306Z,1.70
2022-11-25T12:53:40.345Z,1.50
2022-11-25T12:54:40.287Z,1.70
2022-11-25T12:55:40.345Z,1.60
2022-11-25T12:56:40.278Z,1.70
2022-11-25T12:57:43.151Z,1.60
2022-11-25T12:58:41.797Z,1.90
2022-11-25T12:59:40.276Z,1.40
2022-11-25T13:00:42.022Z,1.70
2022-11-25T13:01:40.306Z,1.50
2022-11-25T13:02:40.246Z,1.60
2022-11-25T13:03:40.242Z,1.30
2022-11-25T13:04:40.226Z,1.60
2022-11-25T13:05:41.181Z,1.30
2022-11-25T13:06:40.164Z,1.70
2022-11-25T13:07:40.177Z,1.50
2022-11-25T13:08:40.169Z,1.40
2022-11-25T13:09:40.147Z,1.50
2022-11-25T13:10:40.187Z,1.20
2022-11-25T13:11:40.353Z,1.30
2022-11-25T13:12:40.443Z,1.50
2022-11-25T13:13:40.425Z,1.40
2022-11-25T13:14:42.064Z,1.40
2022-11-25T13:15:40.585Z,1.60
2022-11-25T13:16:40.563Z,1.80
2022-11-25T13:17:40.097Z,1.30
2022-11-25T13:18:40.035Z,1.40
2022-11-25T13:19:40.038Z,1.70
2022-11-25T13:20:40.046Z,2.20
2022-11-25T13:21:40.078Z,2.20
2022-11-25T13:22:39.998Z,2.20